createdAt,value
2022-10-05T00:00:49.889Z,10.58
2022-10-05T00:03:18.301Z,10.58
2022-10-05T00:05:46.227Z,10.53
2022-10-05T00:08:24.279Z,10.46
2022-10-05T00:10:52.585Z,10.45
2022-10-05T00:13:26.321Z,10.37
2022-10-05T00:16:04.977Z,10.30
2022-10-05T00:18:34.353Z,10.21
2022-10-05T00:21:02.164Z,9.99
2022-10-05T00:23:31.593Z,9.93
2022-10-05T00:26:14.621Z,9.91
2022-10-05T00:28:43.015Z,9.81
2022-10-05T00:31:32.907Z,9.69
2022-10-05T00:34:00.499Z,9.64
2022-10-05T00:36:28.121Z,9.65
2022-10-05T00:38:55.799Z,9.53
2022-10-05T00:42:10.830Z,9.58
2022-10-05T00:44:50.962Z,9.53
2022-10-05T00:47:49.717Z,9.53
2022-10-05T00:50:41.990Z,9.48
2022-10-05T00:53:28.385Z,9.53
2022-10-05T00:56:33.310Z,9.39
2022-10-05T00:59:25.249Z,9.36
2022-10-05T01:01:55.767Z,9.39
2022-10-05T01:04:38.318Z,9.40
2022-10-05T01:07:28.019Z,9.43
2022-10-05T01:10:06.409Z,9.45
2022-10-05T01:12:54.401Z,9.52
2022-10-05T01:15:27.715Z,9.55
2022-10-05T01:18:05.904Z,9.58
2022-10-05T01:20:36.555Z,9.62
2022-10-05T01:23:29.357Z,9.65
2022-10-05T01:26:08.841Z,9.71
2022-10-05T01:28:45.820Z,9.70
2022-10-05T01:31:20.217Z,9.70
2022-10-05T01:34:13.357Z,9.73
2022-10-05T01:36:49.804Z,9.71
2022-10-05T01:39:20.704Z,9.73
2022-10-05T01:42:24.004Z,9.68
2022-10-05T01:45:26.292Z,9.65
2022-10-05T01:48:10.107Z,9.61
2022-10-05T01:50:49.759Z,9.62
2022-10-05T01:53:25.100Z,9.60
2022-10-05T01:55:56.815Z,9.66
2022-10-05T01:58:34.925Z,9.63
2022-10-05T02:01:27.672Z,9.64
2022-10-05T02:04:17.665Z,9.69
2022-10-05T02:06:54.175Z,9.73
2022-10-05T02:09:28.418Z,9.76
2022-10-05T02:12:11.882Z,9.77
2022-10-05T02:14:44.106Z,9.79
2022-10-05T02:17:37.160Z,9.79
2022-10-05T02:20:11.942Z,9.77
2022-10-05T02:22:46.667Z,9.79
2022-10-05T02:25:18.163Z,9.80
2022-10-05T02:28:14.236Z,9.77
2022-10-05T02:30:57.742Z,9.75
2022-10-05T02:33:31.306Z,9.76
2022-10-05T02:36:33.572Z,9.77
2022-10-05T02:39:24.577Z,9.72
2022-10-05T02:41:57.525Z,9.73
2022-10-05T02:44:36.184Z,9.63
2022-10-05T02:47:28.029Z,9.52
2022-10-05T02:50:24.441Z,9.49
2022-10-05T02:52:59.891Z,9.46
2022-10-05T02:55:46.288Z,9.45
2022-10-05T02:58:27.656Z,9.41
2022-10-05T03:00:59.076Z,9.36
2022-10-05T03:03:39.612Z,9.40
2022-10-05T03:06:20.838Z,9.39
2022-10-05T03:09:01.637Z,9.42
2022-10-05T03:12:12.798Z,9.41
2022-10-05T03:15:24.412Z,9.45
2022-10-05T03:18:02.232Z,9.43
2022-10-05T03:20:55.906Z,9.43
2022-10-05T03:23:47.896Z,9.48
2022-10-05T03:26:24.678Z,9.51
2022-10-05T03:28:55.633Z,9.47
2022-10-05T03:31:51.627Z,9.45
2022-10-05T03:34:50.799Z,9.46
2022-10-05T03:37:42.062Z,9.49
2022-10-05T03:40:29.534Z,9.49
2022-10-05T03:43:24.135Z,9.51
2022-10-05T03:46:08.897Z,9.43
2022-10-05T03:48:54.972Z,9.42
2022-10-05T03:51:32.900Z,9.42
2022-10-05T03:54:11.969Z,9.41
2022-10-05T03:57:00.655Z,9.43
2022-10-05T03:59:38.045Z,9.43
2022-10-05T04:02:16.769Z,9.53
2022-10-05T04:04:56.824Z,9.51
2022-10-05T04:08:00.268Z,9.58
2022-10-05T04:10:40.292Z,9.60
2022-10-05T04:13:20.419Z,9.68
2022-10-05T04:16:10.242Z,9.68
2022-10-05T04:18:45.524Z,9.68
2022-10-05T04:21:34.084Z,9.66
2022-10-05T04:24:11.681Z,9.73
2022-10-05T04:26:39.385Z,9.81
2022-10-05T04:29:24.859Z,9.78
2022-10-05T04:32:17.543Z,9.90
2022-10-05T04:34:58.087Z,9.92
2022-10-05T04:37:48.989Z,10.03
2022-10-05T04:40:22.975Z,10.07
2022-10-05T04:43:09.433Z,10.17
2022-10-05T04:46:05.161Z,10.20
2022-10-05T04:48:54.675Z,10.27
2022-10-05T04:51:38.105Z,10.34
2022-10-05T04:54:41.413Z,10.40
2022-10-05T04:57:20.056Z,10.52
2022-10-05T05:00:06.738Z,10.60
2022-10-05T05:02:51.528Z,10.60
2022-10-05T05:05:31.752Z,10.69
2022-10-05T05:08:27.948Z,10.75
2022-10-05T05:11:05.678Z,10.85
2022-10-05T05:14:11.080Z,10.86
2022-10-05T05:16:44.691Z,10.92
2022-10-05T05:19:17.758Z,11.01
2022-10-05T05:22:03.239Z,11.06
2022-10-05T05:24:46.109Z,11.08
2022-10-05T05:27:41.211Z,11.08
2022-10-05T05:30:16.769Z,11.09
2022-10-05T05:33:12.948Z,11.08
2022-10-05T05:36:04.555Z,11.02
2022-10-05T05:38:56.821Z,11.09
2022-10-05T05:41:34.815Z,11.05
2022-10-05T05:44:28.363Z,11.06
2022-10-05T05:47:21.050Z,11.08
2022-10-05T05:50:16.836Z,11.15
2022-10-05T05:52:51.820Z,11.26
2022-10-05T05:55:30.189Z,11.24
2022-10-05T05:58:09.393Z,11.34
2022-10-05T06:00:43.076Z,11.41
2022-10-05T06:03:23.275Z,11.44
2022-10-05T06:05:59.784Z,11.54
2022-10-05T06:08:41.793Z,11.63
2022-10-05T06:11:37.328Z,11.76
2022-10-05T06:14:16.296Z,11.82
2022-10-05T06:16:55.522Z,11.92
2022-10-05T06:19:26.632Z,12.04
2022-10-05T06:22:02.048Z,12.14
2022-10-05T06:24:29.749Z,12.20
2022-10-05T06:27:16.390Z,12.28
2022-10-05T06:30:02.822Z,12.37
2022-10-05T06:32:49.953Z,12.47
2022-10-05T06:35:51.125Z,12.47
2022-10-05T06:38:37.860Z,12.46
2022-10-05T06:41:11.812Z,12.52
2022-10-05T06:44:00.911Z,12.64
2022-10-05T06:47:15.475Z,12.72
2022-10-05T06:50:35.441Z,12.85
2022-10-05T06:53:43.314Z,13.06
2022-10-05T06:56:16.148Z,13.21
2022-10-05T06:58:43.644Z,13.34
2022-10-05T07:01:36.653Z,13.41
2022-10-05T07:04:22.574Z,13.46
2022-10-05T07:06:55.227Z,13.31
2022-10-05T07:09:41.884Z,13.28
2022-10-05T07:12:31.829Z,13.24
2022-10-05T07:15:22.276Z,13.26
2022-10-05T07:18:21.264Z,13.31
2022-10-05T07:21:05.661Z,13.31
2022-10-05T07:24:02.524Z,13.26
2022-10-05T07:26:41.201Z,13.27
2022-10-05T07:29:19.461Z,13.30
2022-10-05T07:32:01.389Z,13.27
2022-10-05T07:34:57.794Z,13.32
2022-10-05T07:37:54.907Z,13.33
2022-10-05T07:40:34.475Z,13.31
2022-10-05T07:43:17.338Z,13.35
2022-10-05T07:46:11.718Z,13.41
2022-10-05T07:49:10.986Z,13.52
2022-10-05T07:51:47.324Z,13.51
2022-10-05T07:54:22.049Z,13.52
2022-10-05T07:57:03.337Z,13.55
2022-10-05T07:59:44.837Z,13.77
2022-10-05T08:02:41.986Z,13.80
2022-10-05T08:05:38.421Z,13.88
2022-10-05T08:08:15.538Z,13.86
2022-10-05T08:10:52.155Z,13.81
2022-10-05T08:13:38.627Z,13.76
2022-10-05T08:16:14.717Z,13.80
2022-10-05T08:18:49.965Z,14.00
2022-10-05T08:21:23.556Z,14.00
2022-10-05T08:23:55.257Z,13.99
2022-10-05T08:26:50.569Z,14.13
2022-10-05T08:29:32.063Z,14.35
2022-10-05T08:32:10.624Z,14.42
2022-10-05T08:35:17.892Z,14.46
2022-10-05T08:37:47.891Z,14.61
2022-10-05T08:40:45.281Z,14.78
2022-10-05T08:43:40.789Z,14.95
2022-10-05T08:46:29.928Z,15.11
2022-10-05T08:49:32.823Z,15.17
2022-10-05T08:52:36.602Z,15.15
2022-10-05T08:55:10.179Z,14.97
2022-10-05T08:58:17.174Z,14.98
2022-10-05T09:01:09.694Z,15.07
2022-10-05T09:03:56.887Z,15.13
2022-10-05T09:07:03.316Z,15.08
2022-10-05T09:10:08.390Z,15.00
2022-10-05T09:12:55.108Z,14.84
2022-10-05T09:15:41.646Z,14.78
2022-10-05T09:18:39.767Z,14.75
2022-10-05T09:21:21.990Z,14.70
2022-10-05T09:24:07.061Z,14.81
2022-10-05T09:27:02.092Z,15.09
2022-10-05T09:29:50.917Z,15.20
2022-10-05T09:32:57.981Z,15.36
2022-10-05T09:35:34.564Z,15.32
2022-10-05T09:38:13.245Z,15.32
2022-10-05T09:41:02.180Z,15.25
2022-10-05T09:44:00.268Z,15.31
2022-10-05T09:46:51.922Z,15.18
2022-10-05T09:49:50.371Z,15.21
2022-10-05T09:52:55.327Z,15.14
2022-10-05T09:55:53.818Z,15.13
2022-10-05T09:58:42.685Z,15.29
2022-10-05T10:01:34.065Z,15.60
2022-10-05T10:04:37.551Z,15.62
2022-10-05T10:07:24.556Z,15.69
2022-10-05T10:10:04.792Z,15.76
2022-10-05T10:12:37.281Z,15.72
2022-10-05T10:15:24.230Z,15.59
2022-10-05T10:18:02.004Z,15.69
2022-10-05T10:20:35.454Z,15.74
2022-10-05T10:23:10.254Z,15.90
2022-10-05T10:25:58.561Z,15.69
2022-10-05T10:28:47.723Z,15.46
2022-10-05T10:31:44.078Z,15.38
2022-10-05T10:34:23.464Z,15.36
2022-10-05T10:37:29.569Z,15.60
2022-10-05T10:40:20.370Z,15.66
2022-10-05T10:43:23.646Z,15.91
2022-10-05T10:46:07.950Z,16.04
2022-10-05T10:48:54.537Z,16.07
2022-10-05T10:51:32.816Z,16.06
2022-10-05T10:54:33.872Z,15.91
2022-10-05T10:57:03.197Z,15.91
2022-10-05T11:00:04.594Z,16.05
2022-10-05T11:03:17.206Z,16.19
2022-10-05T11:05:53.939Z,16.48
2022-10-05T11:08:53.917Z,16.22
2022-10-05T11:11:32.849Z,16.07
2022-10-05T11:14:24.880Z,15.86
2022-10-05T11:17:07.597Z,15.92
2022-10-05T11:20:04.065Z,16.08
2022-10-05T11:22:40.133Z,16.14
2022-10-05T11:25:20.789Z,16.24
2022-10-05T11:28:03.494Z,16.30
2022-10-05T11:30:36.768Z,16.52
2022-10-05T11:33:24.434Z,16.48
2022-10-05T11:35:51.885Z,16.10
2022-10-05T11:38:22.194Z,16.18
2022-10-05T11:41:18.452Z,16.39
2022-10-05T11:44:20.215Z,16.43
2022-10-05T11:46:59.620Z,16.44
2022-10-05T11:49:39.661Z,16.47
2022-10-05T11:52:12.938Z,16.42
2022-10-05T11:55:10.391Z,16.30
2022-10-05T11:57:57.201Z,16.36
2022-10-05T12:00:46.572Z,16.46
2022-10-05T12:03:29.267Z,16.59
2022-10-05T12:05:57.044Z,16.55
2022-10-05T12:08:30.411Z,16.40
2022-10-05T12:11:00.752Z,16.36
2022-10-05T12:13:45.793Z,16.29
2022-10-05T12:16:27.608Z,16.25
2022-10-05T12:19:05.088Z,16.31
2022-10-05T12:21:47.317Z,16.21
2022-10-05T12:24:31.573Z,16.34
2022-10-05T12:27:04.711Z,16.30
2022-10-05T12:30:07.260Z,16.39
2022-10-05T12:32:46.595Z,16.55
2022-10-05T12:35:29.970Z,16.49
2022-10-05T12:38:23.070Z,16.45
2022-10-05T12:41:14.955Z,16.36
2022-10-05T12:44:11.506Z,16.41
2022-10-05T12:47:02.037Z,16.47
2022-10-05T12:49:38.784Z,16.40
2022-10-05T12:52:18.677Z,16.36
2022-10-05T12:55:18.234Z,16.44
2022-10-05T12:58:17.917Z,16.40
2022-10-05T13:01:15.911Z,16.45
2022-10-05T13:03:54.715Z,16.42
2022-10-05T13:06:38.035Z,16.26
2022-10-05T13:09:50.091Z,16.17
2022-10-05T13:12:36.220Z,16.02
2022-10-05T13:15:06.837Z,16.04
2022-10-05T13:17:49.719Z,15.97
2022-10-05T13:20:39.364Z,16.14
2022-10-05T13:23:34.914Z,16.00
2022-10-05T13:26:16.030Z,15.83
2022-10-05T13:28:55.783Z,15.76
2022-10-05T13:31:50.454Z,15.72
2022-10-05T13:34:31.755Z,15.67
2022-10-05T13:37:04.041Z,15.58
2022-10-05T13:39:54.602Z,15.45
2022-10-05T13:42:33.800Z,15.38
2022-10-05T13:45:12.526Z,15.31
2022-10-05T13:47:45.822Z,15.19
2022-10-05T13:50:22.329Z,15.15
2022-10-05T13:53:33.054Z,15.14
2022-10-05T13:56:25.292Z,15.12
2022-10-05T13:59:13.969Z,15.07
2022-10-05T14:01:52.664Z,14.98
2022-10-05T14:04:28.516Z,14.88
2022-10-05T14:06:56.754Z,14.87
2022-10-05T14:09:34.109Z,14.80
2022-10-05T14:12:04.345Z,14.78
2022-10-05T14:14:42.473Z,14.68
2022-10-05T14:17:17.402Z,14.68
2022-10-05T14:19:48.760Z,14.64
2022-10-05T14:22:24.271Z,14.59
2022-10-05T14:25:10.167Z,14.52
2022-10-05T14:27:51.097Z,14.43
2022-10-05T14:30:23.342Z,14.41
2022-10-05T14:33:06.368Z,14.36
2022-10-05T14:35:50.139Z,14.39
2022-10-05T14:38:18.693Z,14.34
2022-10-05T14:40:46.332Z,14.37
2022-10-05T14:43:20.104Z,14.26
2022-10-05T14:46:02.686Z,14.29
2022-10-05T14:48:45.472Z,14.24
2022-10-05T14:51:28.364Z,14.22
2022-10-05T14:54:00.190Z,14.22
2022-10-05T14:56:50.132Z,14.15
2022-10-05T14:59:33.125Z,14.13
2022-10-05T15:02:35.915Z,14.04
2022-10-05T15:05:17.254Z,14.05
2022-10-05T15:07:49.379Z,14.03
2022-10-05T15:10:38.197Z,13.99
2022-10-05T15:13:13.408Z,13.99
2022-10-05T15:16:03.418Z,13.94
2022-10-05T15:18:32.150Z,14.02
2022-10-05T15:21:21.079Z,13.99
2022-10-05T15:24:02.855Z,13.97
2022-10-05T15:26:52.634Z,13.91
2022-10-05T15:29:22.805Z,13.91
2022-10-05T15:32:01.285Z,13.95
2022-10-05T15:35:01.325Z,13.89
2022-10-05T15:37:28.866Z,13.82
2022-10-05T15:39:59.874Z,13.77
2022-10-05T15:42:41.285Z,13.75
2022-10-05T15:45:32.887Z,13.72
2022-10-05T15:48:17.505Z,13.65
2022-10-05T15:51:01.015Z,13.70
2022-10-05T15:53:37.920Z,13.65
2022-10-05T15:56:11.468Z,13.65
2022-10-05T15:59:12.131Z,13.58
2022-10-05T16:01:51.892Z,13.56
2022-10-05T16:04:25.167Z,13.54
2022-10-05T16:07:22.477Z,13.56
2022-10-05T16:10:20.069Z,13.55
2022-10-05T16:13:06.145Z,13.58
2022-10-05T16:15:38.691Z,13.58
2022-10-05T16:18:42.328Z,13.51
2022-10-05T16:21:29.727Z,13.52
2022-10-05T16:23:57.206Z,13.55
2022-10-05T16:26:32.767Z,13.55
2022-10-05T16:29:11.383Z,13.54
2022-10-05T16:32:00.446Z,13.48
2022-10-05T16:34:59.373Z,13.49
2022-10-05T16:37:39.093Z,13.52
2022-10-05T16:40:28.444Z,13.53
2022-10-05T16:43:05.664Z,13.53
2022-10-05T16:46:01.118Z,13.45
2022-10-05T16:48:34.514Z,13.41
2022-10-05T16:51:17.014Z,13.41
2022-10-05T16:54:24.419Z,13.39
2022-10-05T16:56:59.430Z,13.38
2022-10-05T16:59:45.176Z,13.37
2022-10-05T17:02:39.836Z,13.38
2022-10-05T17:05:49.164Z,13.29
2022-10-05T17:08:58.265Z,13.29
2022-10-05T17:11:52.740Z,13.29
2022-10-05T17:14:39.715Z,13.27
2022-10-05T17:17:19.070Z,13.23
2022-10-05T17:20:09.601Z,13.23
2022-10-05T17:22:48.069Z,13.17
2022-10-05T17:25:24.378Z,13.19
2022-10-05T17:28:18.426Z,13.21
2022-10-05T17:31:12.679Z,13.19
2022-10-05T17:33:59.857Z,13.15
2022-10-05T17:36:47.671Z,13.13
2022-10-05T17:39:18.227Z,13.18
2022-10-05T17:41:47.054Z,13.12
2022-10-05T17:44:16.339Z,13.19
2022-10-05T17:46:47.616Z,13.12
2022-10-05T17:49:34.438Z,13.07
2022-10-05T17:52:42.463Z,13.08
2022-10-05T17:55:30.698Z,13.07
2022-10-05T17:58:19.764Z,13.03
2022-10-05T18:00:57.346Z,12.97
2022-10-05T18:03:42.021Z,12.99
2022-10-05T18:06:33.373Z,13.00
2022-10-05T18:09:17.487Z,12.96
2022-10-05T18:12:02.323Z,13.00
2022-10-05T18:15:08.107Z,12.97
2022-10-05T18:17:41.206Z,13.02
2022-10-05T18:20:28.684Z,12.93
2022-10-05T18:23:21.991Z,12.94
2022-10-05T18:26:01.427Z,12.96
2022-10-05T18:29:13.706Z,13.01
2022-10-05T18:32:01.280Z,13.02
2022-10-05T18:34:39.723Z,12.99
2022-10-05T18:37:16.758Z,12.99
2022-10-05T18:40:26.022Z,12.98
2022-10-05T18:43:29.614Z,12.99
2022-10-05T18:46:00.042Z,13.01
2022-10-05T18:48:34.401Z,13.03
2022-10-05T18:51:31.050Z,13.11
2022-10-05T18:54:07.518Z,13.09
2022-10-05T18:56:49.585Z,13.11
2022-10-05T18:59:38.962Z,13.13
2022-10-05T19:02:11.125Z,13.12
2022-10-05T19:05:00.583Z,13.08
2022-10-05T19:07:41.109Z,13.10
2022-10-05T19:10:21.668Z,13.11
2022-10-05T19:13:01.831Z,13.04
2022-10-05T19:15:41.720Z,13.02
2022-10-05T19:18:47.233Z,13.01
2022-10-05T19:21:51.867Z,12.94
2022-10-05T19:24:46.136Z,12.99
2022-10-05T19:27:44.429Z,12.97
2022-10-05T19:30:18.089Z,12.97
2022-10-05T19:33:07.259Z,13.01
2022-10-05T19:35:59.464Z,12.99
2022-10-05T19:38:56.577Z,12.91
2022-10-05T19:41:45.003Z,12.89
2022-10-05T19:44:21.069Z,12.87
2022-10-05T19:47:05.768Z,12.91
2022-10-05T19:49:39.950Z,12.91
2022-10-05T19:52:22.832Z,12.90
2022-10-05T19:55:04.708Z,12.92
2022-10-05T19:57:32.431Z,12.88
2022-10-05T19:59:59.937Z,12.90
2022-10-05T20:02:28.037Z,12.94
2022-10-05T20:05:07.126Z,12.95
2022-10-05T20:07:37.743Z,12.96
2022-10-05T20:10:29.457Z,12.92
2022-10-05T20:13:02.493Z,12.92
2022-10-05T20:15:51.333Z,12.95
2022-10-05T20:18:56.259Z,12.97
2022-10-05T20:21:45.744Z,12.87
2022-10-05T20:24:15.995Z,12.88
2022-10-05T20:27:02.710Z,12.86
2022-10-05T20:29:33.579Z,12.84
2022-10-05T20:32:08.906Z,12.78
2022-10-05T20:34:37.672Z,12.79
2022-10-05T20:37:05.173Z,12.75
2022-10-05T20:39:34.825Z,12.78
2022-10-05T20:42:02.406Z,12.70
2022-10-05T20:44:30.898Z,12.62
2022-10-05T20:46:58.748Z,12.68
2022-10-05T20:49:26.545Z,12.69
2022-10-05T20:51:55.854Z,12.69
2022-10-05T20:54:24.881Z,12.65
2022-10-05T20:56:54.065Z,12.59
2022-10-05T20:59:23.324Z,12.58
2022-10-05T21:01:51.268Z,12.60
2022-10-05T21:04:24.128Z,12.57
2022-10-05T21:06:52.931Z,12.58
2022-10-05T21:09:21.630Z,12.57
2022-10-05T21:11:51.644Z,12.59
2022-10-05T21:14:19.105Z,12.55
2022-10-05T21:16:46.635Z,12.56
2022-10-05T21:19:15.233Z,12.59
2022-10-05T21:21:46.515Z,12.56
2022-10-05T21:24:15.980Z,12.55
2022-10-05T21:26:44.844Z,12.55
2022-10-05T21:29:13.402Z,12.57
2022-10-05T21:31:41.654Z,12.55
2022-10-05T21:34:09.295Z,12.59
2022-10-05T21:36:36.839Z,12.62
2022-10-05T21:39:04.751Z,12.64
2022-10-05T21:41:32.460Z,12.64
2022-10-05T21:43:59.981Z,12.59
2022-10-05T21:46:29.665Z,12.58
2022-10-05T21:48:57.157Z,12.60
2022-10-05T21:51:26.435Z,12.52
2022-10-05T21:54:01.771Z,12.54
2022-10-05T21:56:36.714Z,12.52
2022-10-05T21:59:08.296Z,12.52
2022-10-05T22:01:36.124Z,12.51
2022-10-05T22:04:04.769Z,12.48
2022-10-05T22:06:33.694Z,12.45
2022-10-05T22:09:01.561Z,12.44
2022-10-05T22:11:29.642Z,12.44
2022-10-05T22:14:03.400Z,12.41
2022-10-05T22:16:38.234Z,12.38
2022-10-05T22:19:10.696Z,12.39
2022-10-05T22:21:41.828Z,12.42
2022-10-05T22:24:13.424Z,12.41
2022-10-05T22:26:43.726Z,12.43
2022-10-05T22:29:11.866Z,12.45
2022-10-05T22:31:39.632Z,12.42
2022-10-05T22:34:07.424Z,12.44
2022-10-05T22:36:35.873Z,12.43
2022-10-05T22:39:04.289Z,12.43
2022-10-05T22:41:32.702Z,12.47
2022-10-05T22:44:00.935Z,12.42
2022-10-05T22:46:28.783Z,12.42
2022-10-05T22:48:56.689Z,12.46
2022-10-05T22:51:24.299Z,12.48
2022-10-05T22:53:52.078Z,12.45
2022-10-05T22:56:19.987Z,12.46
2022-10-05T22:58:48.072Z,12.46
2022-10-05T23:01:18.459Z,12.47
2022-10-05T23:03:46.712Z,12.49
2022-10-05T23:06:17.043Z,12.45
2022-10-05T23:08:46.494Z,12.48
2022-10-05T23:11:21.325Z,12.47
2022-10-05T23:13:50.831Z,12.47
2022-10-05T23:16:20.555Z,12.45
2022-10-05T23:18:51.585Z,12.45
2022-10-05T23:21:20.837Z,12.46
2022-10-05T23:23:51.152Z,12.39
2022-10-05T23:26:21.150Z,12.39
2022-10-05T23:28:49.680Z,12.39
2022-10-05T23:31:21.879Z,12.42
2022-10-05T23:33:49.837Z,12.42
2022-10-05T23:36:26.072Z,12.41
2022-10-05T23:38:54.277Z,12.41
2022-10-05T23:41:22.060Z,12.34
2022-10-05T23:43:49.567Z,12.34
2022-10-05T23:46:17.998Z,12.37
2022-10-05T23:48:45.714Z,12.37
2022-10-05T23:51:14.521Z,12.39
2022-10-05T23:53:43.415Z,12.38
2022-10-05T23:56:11.169Z,12.39
2022-10-05T23:58:38.955Z,12.32
